Time;durP1;ratioP1;P1;durP2;ratioP2;P2;SDS_P1;SDS_P2;PMS_P1;PMS_P2;Temp;Humidity;BMP_temperature;BMP_pressure;BME280_temperature;BME280_humidity;BME280_pressure;Samples;Min_cycle;Max_cycle;Signal;HPM_P1;HPM_P2
2022/07/13 00:00:53;;;;;;;14.48;8.18;;;;;;;21.49;100.00;102198.63;7372175;19;20095;-77
2022/07/13 00:03:23;;;;;;;13.45;8.20;;;;;;;21.45;100.00;102206.66;7374260;19;20018;-76
2022/07/13 00:05:53;;;;;;;14.00;8.30;;;;;;;21.44;100.00;102199.56;7373397;19;20464;-76
2022/07/13 00:08:23;;;;;;;14.93;8.80;;;;;;;21.41;100.00;102183.56;7370531;19;20027;-77
2022/07/13 00:10:53;;;;;;;19.50;8.70;;;;;;;21.40;100.00;102179.13;7375765;19;20039;-77
2022/07/13 00:13:23;;;;;;;14.98;8.07;;;;;;;21.37;100.00;102171.16;7376439;19;20137;-77
2022/07/13 00:15:56;;;;;;;15.63;8.45;;;;;;;21.35;100.00;102172.97;7373091;19;20314;-78
2022/07/13 00:18:26;;;;;;;15.93;8.57;;;;;;;21.35;100.00;102172.97;7373455;19;20014;-78
2022/07/13 00:20:56;;;;;;;15.93;7.93;;;;;;;21.34;100.00;102165.84;7370611;19;20287;-76
2022/07/13 00:23:26;;;;;;;14.10;8.45;;;;;;;21.31;100.00;102171.22;7370271;19;20372;-75
2022/07/13 00:25:55;;;;;;;14.52;8.05;;;;;;;21.28;100.00;102172.13;7372254;19;20074;-74
2022/07/13 00:28:25;;;;;;;14.35;8.20;;;;;;;21.21;100.00;102171.31;7369515;19;20040;-75
2022/07/13 00:30:58;;;;;;;16.63;8.60;;;;;;;21.17;100.00;102166.88;7369619;19;20039;-75
2022/07/13 00:33:30;;;;;;;16.15;8.27;;;;;;;21.13;100.00;102167.81;7370731;19;20046;-73
2022/07/13 00:36:00;;;;;;;16.00;8.10;;;;;;;21.07;100.00;102165.19;7376054;19;20014;-75
2022/07/13 00:38:30;;;;;;;12.43;7.55;;;;;;;21.05;100.00;102168.78;7373897;19;20229;-73
2022/07/13 00:41:00;;;;;;;16.00;8.48;;;;;;;21.00;100.00;102166.13;7376025;19;20017;-78
2022/07/13 00:43:30;;;;;;;15.65;8.30;;;;;;;20.98;100.00;102159.94;7378557;19;20019;-78
2022/07/13 00:46:04;;;;;;;15.02;8.07;;;;;;;20.95;100.00;102172.41;7373343;19;20087;-74
2022/07/13 00:48:35;;;;;;;16.38;7.88;;;;;;;20.94;100.00;102165.31;7373269;19;20019;-74
2022/07/13 00:51:05;;;;;;;14.55;8.20;;;;;;;20.89;100.00;102155.56;7372812;19;20570;-74
2022/07/13 00:53:39;;;;;;;13.73;7.97;;;;;;;20.87;100.00;102159.16;7366301;19;20129;-74
2022/07/13 00:56:11;;;;;;;16.23;9.18;;;;;;;20.85;100.00;102150.28;7373437;19;20382;-74
2022/07/13 00:58:42;;;;;;;14.75;8.90;;;;;;;20.81;100.00;102149.41;7371439;19;20035;-72
2022/07/13 01:01:14;;;;;;;14.35;8.23;;;;;;;20.78;100.00;102143.25;7373323;19;20010;-73
2022/07/13 01:03:44;;;;;;;16.30;9.25;;;;;;;20.80;100.00;102144.13;7371726;19;20047;-73
2022/07/13 01:06:14;;;;;;;13.35;7.65;;;;;;;20.77;100.00;102141.47;7371757;19;20010;-72
2022/07/13 01:08:44;;;;;;;14.57;8.18;;;;;;;20.78;100.00;102136.13;7374447;19;20294;-74
2022/07/13 01:11:14;;;;;;;15.95;8.20;;;;;;;20.80;100.00;102130.78;7372294;19;20375;-75
2022/07/13 01:13:44;;;;;;;15.40;7.63;;;;;;;20.79;100.00;102139.69;7381352;19;20007;-77
2022/07/13 01:16:17;;;;;;;13.50;8.02;;;;;;;20.81;100.00;102132.53;7387451;19;20014;-76
2022/07/13 01:18:48;;;;;;;15.55;8.15;;;;;;;20.80;100.00;102122.78;7384000;19;20555;-74
2022/07/13 01:21:19;;;;;;;13.57;7.60;;;;;;;20.83;100.00;102125.41;7380103;19;20052;-73
2022/07/13 01:23:53;;;;;;;15.23;8.18;;;;;;;20.83;100.00;102125.41;7380856;19;20077;-74
2022/07/13 01:26:23;;;;;;;12.98;7.50;;;;;;;20.85;100.00;102131.59;7379789;19;20015;-74
2022/07/13 01:28:53;;;;;;;14.35;8.35;;;;;;;20.87;100.00;102130.69;7376253;19;20076;-74
2022/07/13 01:31:36;;;;;;;13.85;7.40;;;;;;;20.89;100.00;102125.34;7375634;19;20085;-73
2022/07/13 01:34:08;;;;;;;14.55;7.20;;;;;;;20.89;100.00;102130.69;7378736;19;20010;-73
2022/07/13 01:36:38;;;;;;;12.38;6.97;;;;;;;20.89;100.00;102125.34;7375927;19;20061;-73
2022/07/13 01:39:11;;;;;;;14.57;7.50;;;;;;;20.90;100.00;102137.78;7378014;19;20018;-73
2022/07/13 01:41:41;;;;;;;12.35;7.18;;;;;;;20.92;100.00;102138.66;7377057;19;20018;-77
2022/07/13 01:44:11;;;;;;;15.20;7.78;;;;;;;20.92;100.00;102122.66;7379417;19;20604;-77
2022/07/13 01:46:41;;;;;;;15.50;8.15;;;;;;;20.92;100.00;102120.00;7380564;19;20411;-76
2022/07/13 01:49:12;;;;;;;12.45;7.68;;;;;;;20.95;100.00;102119.06;7380454;19;20030;-75
2022/07/13 01:51:42;;;;;;;16.02;8.18;;;;;;;20.94;100.00;102117.31;7376138;19;20018;-73
2022/07/13 01:54:14;;;;;;;12.98;7.88;;;;;;;20.92;100.00;102114.66;7366678;19;20022;-73
2022/07/13 01:56:44;;;;;;;14.40;7.60;;;;;;;20.93;100.00;102118.19;7378172;19;20003;-74
2022/07/13 01:59:14;;;;;;;14.27;8.25;;;;;;;20.92;100.00;102114.66;7376135;19;20260;-75
2022/07/13 02:01:44;;;;;;;13.27;7.90;;;;;;;20.92;100.00;102112.00;7378295;19;20074;-76
2022/07/13 02:04:14;;;;;;;14.32;7.47;;;;;;;20.92;100.00;102108.44;7375499;19;20049;-73
2022/07/13 02:06:44;;;;;;;15.15;7.95;;;;;;;20.94;100.00;102096.84;7375593;19;20014;-76
2022/07/13 02:09:16;;;;;;;12.45;7.22;;;;;;;20.93;100.00;102092.41;7376328;19;20014;-76
2022/07/13 02:11:46;;;;;;;13.30;7.25;;;;;;;20.94;100.00;102087.97;7378005;19;20010;-77
2022/07/13 02:14:16;;;;;;;14.95;7.82;;;;;;;20.94;100.00;102091.53;7379010;19;20015;-76
2022/07/13 02:16:46;;;;;;;15.45;8.05;;;;;;;20.98;99.94;102090.59;7375904;19;20006;-77
2022/07/13 02:19:15;;;;;;;15.65;7.80;;;;;;;20.99;99.75;102088.81;7379306;19;19998;-77
2022/07/13 02:21:46;;;;;;;14.25;7.05;;;;;;;21.00;99.40;102095.91;7375481;19;20052;-76
2022/07/13 02:24:18;;;;;;;17.00;7.30;;;;;;;20.96;100.00;102089.72;7373385;19;20028;-77
2022/07/13 02:26:49;;;;;;;12.52;6.93;;;;;;;20.95;99.98;102095.06;7375585;19;20006;-77
2022/07/13 02:29:19;;;;;;;12.25;7.22;;;;;;;20.95;100.00;102087.06;7374629;19;20006;-78
2022/07/13 02:31:49;;;;;;;16.23;8.02;;;;;;;20.92;100.00;102093.31;7373357;19;20006;-77
2022/07/13 02:34:18;;;;;;;12.68;7.60;;;;;;;20.87;100.00;102082.69;7373548;19;20577;-78
2022/07/13 02:36:48;;;;;;;14.18;7.20;;;;;;;20.86;100.00;102088.03;7375738;19;20013;-78
2022/07/13 02:39:21;;;;;;;12.23;7.57;;;;;;;20.86;100.00;102082.72;7374002;19;20021;-78
2022/07/13 02:41:51;;;;;;;15.15;7.05;;;;;;;20.84;100.00;102089.84;7377722;19;20533;-79
2022/07/13 02:44:21;;;;;;;13.30;7.72;;;;;;;20.80;100.00;102080.13;7376448;19;20472;-75
2022/07/13 02:46:51;;;;;;;12.60;7.50;;;;;;;20.78;100.00;102079.28;7370447;19;20034;-79
2022/07/13 02:49:20;;;;;;;12.63;7.75;;;;;;;20.76;100.00;102081.06;7373218;19;20007;-76
2022/07/13 02:51:50;;;;;;;14.73;7.68;;;;;;;20.74;100.00;102082.84;7376402;19;20007;-77
2022/07/13 02:54:23;;;;;;;13.73;7.63;;;;;;;20.74;100.00;102090.84;7366744;19;20383;-76
2022/07/13 02:56:53;;;;;;;14.55;8.25;;;;;;;20.71;100.00;102074.88;7377297;19;20270;-77
2022/07/13 02:59:23;;;;;;;15.52;8.07;;;;;;;20.71;100.00;102080.22;7374531;19;20044;-77
2022/07/13 03:01:53;;;;;;;13.02;7.75;;;;;;;20.71;100.00;102077.56;7373357;19;20060;-77
2022/07/13 03:04:26;;;;;;;13.18;6.88;;;;;;;20.70;100.00;102081.13;7375056;19;20050;-76
2022/07/13 03:06:55;;;;;;;12.52;7.05;;;;;;;20.68;100.00;102080.25;7374141;19;20047;-76
2022/07/13 03:09:28;;;;;;;14.45;7.57;;;;;;;20.67;100.00;102075.81;7374058;19;20038;-77
2022/07/13 03:12:00;;;;;;;13.02;7.63;;;;;;;20.67;100.00;102065.16;7374756;19;20043;-77
2022/07/13 03:14:30;;;;;;;13.15;7.80;;;;;;;20.65;100.00;102054.50;7376178;19;20025;-77
2022/07/13 03:17:02;;;;;;;13.90;7.82;;;;;;;20.62;100.00;102059.84;7376904;19;20023;-77
2022/07/13 03:19:33;;;;;;;13.20;7.80;;;;;;;20.59;100.00;102059.00;7374809;19;20090;-77
2022/07/13 03:22:06;;;;;;;14.55;8.48;;;;;;;20.55;100.00;102058.16;7374013;19;20493;-77
2022/07/13 03:24:42;;;;;;;13.60;7.90;;;;;;;20.51;100.00;102046.63;7377521;19;20021;-77
2022/07/13 03:27:12;;;;;;;16.52;9.30;;;;;;;20.51;100.00;102054.63;7376223;19;20041;-77
2022/07/13 03:29:42;;;;;;;12.27;6.75;;;;;;;20.47;100.00;102049.34;7374680;19;20019;-76
2022/07/13 03:32:12;;;;;;;12.35;7.60;;;;;;;20.47;100.00;102052.00;7378093;19;20058;-77
2022/07/13 03:34:42;;;;;;;15.07;8.27;;;;;;;20.45;100.00;102046.69;7375298;19;20003;-78
2022/07/13 03:37:12;;;;;;;15.20;7.53;;;;;;;20.46;100.00;102053.78;7372469;19;20021;-77
2022/07/13 03:39:44;;;;;;;14.60;8.05;;;;;;;20.45;100.00;102053.78;7376480;19;20011;-76
2022/07/13 03:42:14;;;;;;;13.38;7.70;;;;;;;20.46;100.00;102044.91;7377111;19;20086;-77
2022/07/13 03:44:44;;;;;;;14.02;8.35;;;;;;;20.46;100.00;102051.13;7374058;19;20015;-76
2022/07/13 03:47:14;;;;;;;21.30;11.13;;;;;;;20.46;100.00;102048.44;7375930;19;20014;-76
2022/07/13 03:49:43;;;;;;;15.32;8.90;;;;;;;20.47;100.00;102058.22;7372243;19;20014;-77
2022/07/13 03:52:13;;;;;;;14.77;7.68;;;;;;;20.47;100.00;102055.53;7374037;19;20018;-76
2022/07/13 03:54:46;;;;;;;14.15;7.85;;;;;;;20.48;100.00;102053.75;7375636;19;20021;-76
2022/07/13 03:57:16;;;;;;;13.52;7.97;;;;;;;20.49;100.00;102050.19;7377455;19;20027;-77
2022/07/13 03:59:46;;;;;;;18.67;10.80;;;;;;;20.51;100.00;102051.06;7375288;19;20338;-77
2022/07/13 04:02:17;;;;;;;17.45;9.60;;;;;;;20.51;100.00;102046.63;7372756;19;20011;-77
2022/07/13 04:04:47;;;;;;;17.25;9.10;;;;;;;20.53;100.00;102044.84;7369606;19;20014;-77
2022/07/13 04:07:17;;;;;;;15.07;8.68;;;;;;;20.58;100.00;102038.56;7373566;19;20015;-76
2022/07/13 04:09:49;;;;;;;13.65;8.30;;;;;;;20.59;100.00;102045.69;7372077;19;20099;-77
2022/07/13 04:12:23;;;;;;;23.88;11.48;;;;;;;20.60;100.00;102055.44;7377001;19;20066;-77
2022/07/13 04:14:55;;;;;;;21.17;9.60;;;;;;;20.62;100.00;102049.19;7370442;19;20487;-78
2022/07/13 04:17:25;;;;;;;16.55;8.32;;;;;;;20.64;100.00;102059.84;7374348;19;20027;-77
2022/07/13 04:19:55;;;;;;;14.13;7.63;;;;;;;20.66;100.00;102052.72;7374306;19;20007;-77
2022/07/13 04:22:24;;;;;;;12.48;7.28;;;;;;;20.69;100.00;102055.34;7372816;19;20090;-77
2022/07/13 04:24:57;;;;;;;14.25;7.55;;;;;;;20.72;100.00;102050.88;7373872;19;20022;-77
2022/07/13 04:27:27;;;;;;;11.52;7.13;;;;;;;20.76;100.00;102054.41;7378081;19;20062;-79
2022/07/13 04:29:57;;;;;;;16.30;7.93;;;;;;;20.80;100.00;102053.47;7375630;19;20015;-76
2022/07/13 04:32:26;;;;;;;15.45;8.10;;;;;;;20.83;100.00;102056.06;7377222;19;20086;-77
2022/07/13 04:34:56;;;;;;;12.68;6.38;;;;;;;20.88;100.00;102048.91;7379637;19;20503;-78
2022/07/13 04:37:26;;;;;;;13.93;7.60;;;;;;;20.89;99.37;102048.00;7377891;19;20015;-77
2022/07/13 04:39:58;;;;;;;14.25;7.70;;;;;;;20.94;97.34;102051.53;7380977;19;20021;-74
2022/07/13 04:42:28;;;;;;;13.13;7.15;;;;;;;20.98;97.33;102049.72;7375327;19;20014;-77
2022/07/13 04:44:58;;;;;;;15.63;7.03;;;;;;;20.97;96.55;102048.81;7373920;19;20047;-75
2022/07/13 04:47:28;;;;;;;15.40;7.63;;;;;;;21.03;95.36;102046.09;7371021;19;20003;-74
2022/07/13 04:49:58;;;;;;;11.70;6.95;;;;;;;21.02;95.31;102044.31;7379512;19;20439;-75
2022/07/13 04:52:28;;;;;;;12.23;7.25;;;;;;;21.05;95.92;102038.97;7371148;19;20007;-74
2022/07/13 04:55:00;;;;;;;13.20;7.40;;;;;;;21.07;95.71;102046.94;7378444;19;20010;-74
2022/07/13 04:57:30;;;;;;;11.93;7.28;;;;;;;21.05;95.32;102052.28;7375556;19;20551;-74
2022/07/13 04:59:59;;;;;;;14.18;8.30;;;;;;;21.04;95.53;102063.84;7377604;19;20447;-75
2022/07/13 05:02:29;;;;;;;15.60;8.10;;;;;;;21.04;96.01;102063.84;7377893;19;20036;-75
2022/07/13 05:04:59;;;;;;;13.23;7.65;;;;;;;21.05;96.57;102062.97;7377308;19;20074;-76
2022/07/13 05:07:29;;;;;;;12.75;8.02;;;;;;;21.06;97.63;102054.06;7376589;19;20011;-74
2022/07/13 05:10:09;;;;;;;16.75;8.52;;;;;;;21.09;97.63;102039.81;7376743;19;20014;-74
2022/07/13 05:12:43;;;;;;;14.48;8.05;;;;;;;21.10;98.09;102034.44;7377498;19;20106;-77
2022/07/13 05:15:14;;;;;;;14.73;8.68;;;;;;;21.14;98.04;102045.97;7379235;19;20019;-77
2022/07/13 05:17:44;;;;;;;14.50;7.95;;;;;;;21.18;98.27;102048.59;7380259;19;20021;-77
2022/07/13 05:20:14;;;;;;;14.50;7.25;;;;;;;21.20;99.06;102044.13;7379980;19;20010;-77
2022/07/13 05:22:44;;;;;;;12.85;7.93;;;;;;;21.24;99.04;102044.13;7376444;19;20022;-77
2022/07/13 05:25:17;;;;;;;14.93;8.45;;;;;;;21.28;99.23;102059.19;7379713;19;20018;-77
2022/07/13 05:27:47;;;;;;;12.40;7.80;;;;;;;21.37;99.14;102065.31;7379534;19;20010;-78
2022/07/13 05:30:17;;;;;;;16.27;9.20;;;;;;;21.38;98.80;102053.72;7375245;19;20007;-78
2022/07/13 05:32:46;;;;;;;15.35;9.18;;;;;;;21.40;99.26;102057.25;7380844;19;20121;-78
2022/07/13 05:35:16;;;;;;;13.88;9.45;;;;;;;21.44;98.54;102060.78;7382626;19;20047;-78
2022/07/13 05:37:47;;;;;;;14.57;8.63;;;;;;;21.47;98.94;102058.06;7382601;19;20019;-78
2022/07/13 05:40:20;;;;;;;13.18;8.82;;;;;;;21.52;98.86;102066.91;7379913;19;20014;-78
2022/07/13 05:42:50;;;;;;;15.40;8.10;;;;;;;21.51;99.35;102059.78;7380503;19;20010;-78
2022/07/13 05:45:21;;;;;;;13.25;8.32;;;;;;;21.49;99.65;102067.81;7380856;19;20532;-78
2022/07/13 05:47:50;;;;;;;14.93;8.95;;;;;;;21.53;99.96;102071.34;7380571;19;20034;-75
2022/07/13 05:50:20;;;;;;;13.82;8.65;;;;;;;21.55;99.86;102074.88;7374560;19;20007;-75
2022/07/13 05:52:50;;;;;;;13.93;7.82;;;;;;;21.67;100.00;102072.03;7372357;19;20010;-75
2022/07/13 05:55:24;;;;;;;15.45;7.55;;;;;;;21.79;99.85;102074.56;7378555;19;20016;-76
2022/07/13 05:57:53;;;;;;;15.23;7.87;;;;;;;21.91;100.00;102072.59;7376373;19;20101;-74
2022/07/13 06:00:23;;;;;;;11.70;7.43;;;;;;;21.95;99.47;102080.53;7377688;19;20018;-75
2022/07/13 06:02:53;;;;;;;12.48;7.60;;;;;;;21.93;98.77;102076.13;7378064;19;20022;-74
2022/07/13 06:05:24;;;;;;;11.88;7.00;;;;;;;22.03;98.90;102072.44;7372957;19;20535;-74
2022/07/13 06:07:55;;;;;;;12.65;7.82;;;;;;;22.00;99.87;102072.44;7375371;19;20018;-74
2022/07/13 06:10:28;;;;;;;13.85;7.65;;;;;;;22.00;99.49;102073.34;7376015;19;20007;-77
2022/07/13 06:12:58;;;;;;;13.50;8.05;;;;;;;21.95;100.00;102072.53;7383297;19;20017;-77
2022/07/13 06:15:28;;;;;;;11.18;7.10;;;;;;;22.00;100.00;102077.78;7383492;19;20019;-78
2022/07/13 06:18:00;;;;;;;11.15;7.70;;;;;;;22.05;100.00;102081.31;7379312;19;20492;-77
2022/07/13 06:20:30;;;;;;;14.18;7.68;;;;;;;22.17;100.00;102079.34;7382327;19;20043;-77
2022/07/13 06:23:14;;;;;;;12.23;7.00;;;;;;;22.18;99.68;102083.78;7381022;19;20078;-77
2022/07/13 06:25:47;;;;;;;13.93;7.53;;;;;;;22.31;99.11;102079.13;7379956;19;20018;-76
2022/07/13 06:28:17;;;;;;;11.63;7.15;;;;;;;22.24;99.43;102088.16;7382432;19;20014;-76
2022/07/13 06:30:47;;;;;;;11.70;7.32;;;;;;;22.29;98.65;102080.94;7377322;19;20024;-76
2022/07/13 06:33:17;;;;;;;11.57;7.10;;;;;;;22.46;99.30;102078.00;7375604;19;20014;-77
2022/07/13 06:35:46;;;;;;;12.93;7.10;;;;;;;22.58;99.79;102074.25;7381242;19;20014;-74
2022/07/13 06:38:17;;;;;;;11.77;6.78;;;;;;;22.63;98.99;102077.72;7373525;19;20484;-74
2022/07/13 06:40:51;;;;;;;15.25;8.20;;;;;;;22.66;98.02;102085.69;7377416;19;20006;-74
2022/07/13 06:43:21;;;;;;;10.55;7.20;;;;;;;22.62;97.57;102089.34;7370964;19;20082;-74
2022/07/13 06:45:52;;;;;;;14.32;7.70;;;;;;;22.58;96.59;102077.81;7373262;19;20011;-75
2022/07/13 06:48:22;;;;;;;16.13;8.68;;;;;;;22.63;96.72;102085.75;7367686;19;20021;-73
2022/07/13 06:50:52;;;;;;;14.02;7.35;;;;;;;22.76;96.52;102090.88;7368762;19;20011;-77
2022/07/13 06:53:22;;;;;;;12.02;6.60;;;;;;;22.82;94.95;102076.53;7362959;19;20010;-77
2022/07/13 06:55:55;;;;;;;12.48;6.95;;;;;;;22.71;94.49;102081.16;7374482;19;20014;-77
2022/07/13 06:58:25;;;;;;;13.23;7.10;;;;;;;22.82;94.64;102076.53;7376235;19;20074;-77
2022/07/13 07:00:55;;;;;;;12.00;6.95;;;;;;;22.83;94.53;102083.66;7378336;19;20024;-76
2022/07/13 07:03:25;;;;;;;13.85;7.10;;;;;;;22.64;92.38;102082.16;7376288;19;20409;-75
2022/07/13 07:06:04;;;;;;;11.98;6.22;;;;;;;22.81;93.45;102088.16;7365884;19;20027;-75
2022/07/13 07:08:36;;;;;;;11.15;6.03;;;;;;;22.83;91.31;102089.00;7375832;19;20036;-76
2022/07/13 07:11:46;;;;;;;10.43;6.35;;;;;;;22.84;90.62;102085.41;7377185;19;20039;-76
2022/07/13 07:14:27;;;;;;;13.38;6.55;;;;;;;23.05;90.17;102085.00;7376108;19;20018;-75
2022/07/13 07:16:58;;;;;;;11.43;6.95;;;;;;;23.26;88.10;102088.16;7377427;19;20049;-75
2022/07/13 07:19:29;;;;;;;11.90;6.55;;;;;;;24.04;84.84;102079.38;7378323;19;20006;-76
2022/07/13 07:22:00;;;;;;;15.80;6.50;;;;;;;24.32;82.25;102085.88;7372176;19;20014;-76
2022/07/13 07:27:14;;;;;;;10.65;6.35;;;;;;;24.88;77.78;102080.88;7374315;19;20039;-76
2022/07/13 07:29:47;;;;;;;9.90;5.90;;;;;;;24.79;75.69;102075.75;7370938;19;20372;-75
2022/07/13 07:32:17;;;;;;;13.07;6.57;;;;;;;24.90;75.27;102081.72;7373650;19;20002;-76
2022/07/13 07:34:47;;;;;;;10.95;6.82;;;;;;;25.38;75.25;102082.16;7369467;19;20874;-76
2022/07/13 07:37:17;;;;;;;10.93;6.30;;;;;;;25.35;72.04;102076.00;7375800;19;20070;-75
2022/07/13 07:39:46;;;;;;;14.85;6.90;;;;;;;25.32;72.18;102068.91;7371098;19;20031;-75
2022/07/13 07:42:16;;;;;;;12.27;6.03;;;;;;;25.82;72.75;102081.81;7378669;19;20014;-78
2022/07/13 07:44:49;;;;;;;9.63;5.72;;;;;;;25.82;71.14;102071.94;7373188;19;20073;-75
2022/07/13 07:47:22;;;;;;;11.55;5.80;;;;;;;26.06;71.81;102078.34;7365641;19;20020;-75
2022/07/13 07:49:52;;;;;;;12.20;6.30;;;;;;;25.54;69.55;102077.22;7369715;19;20135;-76
2022/07/13 07:52:22;;;;;;;10.05;5.47;;;;;;;25.48;71.09;102079.22;7372500;19;20043;-75
2022/07/13 07:55:12;;;;;;;11.85;6.55;;;;;;;24.87;72.25;102072.88;7370185;19;20408;-76
2022/07/13 07:57:49;;;;;;;12.82;6.30;;;;;;;25.78;71.73;102085.53;7380218;19;20480;-79
2022/07/13 08:00:25;;;;;;;9.35;5.05;;;;;;;26.42;68.00;102089.75;7377102;19;20013;-78
2022/07/13 08:02:57;;;;;;;10.18;5.38;;;;;;;26.47;67.62;102084.22;7384803;19;20010;-79
2022/07/13 08:05:27;;;;;;;11.87;6.13;;;;;;;26.60;66.48;102088.25;7381526;19;20011;-78
2022/07/13 08:07:57;;;;;;;9.95;5.97;;;;;;;26.96;63.23;102088.81;7384035;19;20010;-79
2022/07/13 08:10:28;;;;;;;11.60;6.32;;;;;;;26.99;64.27;102080.66;7378992;19;20010;-77
2022/07/13 08:13:03;;;;;;;12.50;6.13;;;;;;;27.68;61.95;102077.16;7381921;19;20014;-79
2022/07/13 08:15:36;;;;;;;10.65;6.05;;;;;;;27.29;59.89;102084.91;7377816;19;20011;-78
2022/07/13 08:18:06;;;;;;;;;;;;;;;27.39;61.92;102087.25;7377784;19;20006;-78
2022/07/13 08:20:36;;;;;;;8.20;5.40;;;;;;;27.78;62.32;102087.59;7372422;19;19918;-78
2022/07/13 08:23:50;;;;;;;9.77;5.85;;;;;;;27.17;59.13;102097.94;7375297;19;20019;-78
2022/07/13 08:25:58;;;;;;;10.60;6.18;;;;;;;27.19;59.56;102093.38;7363064;19;20185;-77
2022/07/13 08:28:28;;;;;;;11.05;5.90;;;;;;;27.60;58.16;102078.41;7373078;19;20029;-78
2022/07/13 08:31:00;;;;;;;12.50;6.30;;;;;;;26.97;59.84;102083.41;7373881;19;20027;-79
2022/07/13 08:39:04;;;;;;;10.30;6.63;;;;;;;27.71;58.10;102086.06;7370748;19;20668;-77
2022/07/13 08:41:33;;;;;;;10.52;5.63;;;;;;;28.51;58.58;102084.63;7371775;19;20287;-75
2022/07/13 08:44:04;;;;;;;9.23;5.50;;;;;;;28.55;55.77;102095.25;7368673;19;20022;-78
2022/07/13 08:46:41;;;;;;;10.75;5.72;;;;;;;28.74;54.41;102089.94;7366936;19;20026;-77
2022/07/13 08:49:12;;;;;;;11.48;6.20;;;;;;;28.06;53.19;102099.06;7370466;19;20428;-78
2022/07/13 08:51:43;;;;;;;10.25;5.55;;;;;;;27.93;54.88;102103.19;7373101;19;20104;-79
2022/07/13 08:54:14;;;;;;;10.70;5.60;;;;;;;28.47;54.85;102096.50;7360210;19;20066;-78
2022/07/13 08:56:44;;;;;;;11.23;5.45;;;;;;;29.17;52.38;102093.47;7373970;19;20010;-77
2022/07/13 08:59:14;;;;;;;10.27;5.60;;;;;;;29.43;51.78;102087.78;7373443;19;20010;-76
2022/07/13 09:01:49;;;;;;;12.07;6.07;;;;;;;29.07;53.20;102089.44;7376661;19;20044;-76
2022/07/13 09:04:19;;;;;;;12.45;5.68;;;;;;;28.60;51.79;102095.03;7375575;19;20022;-76
2022/07/13 09:06:50;;;;;;;9.93;5.88;;;;;;;29.05;52.74;102096.75;7371781;19;20011;-77
2022/07/13 09:09:35;;;;;;;11.45;5.70;;;;;;;29.61;52.15;102105.00;7372009;19;20017;-75
2022/07/13 09:12:27;;;;;;;9.68;5.30;;;;;;;29.35;49.29;102097.16;7373147;19;20011;-74
2022/07/13 09:14:58;;;;;;;12.88;5.85;;;;;;;28.72;52.04;102099.94;7373353;19;20006;-77
2022/07/13 09:17:38;;;;;;;10.85;5.95;;;;;;;28.36;54.04;102094.25;7374569;19;20010;-78
2022/07/13 09:20:26;;;;;;;11.73;6.00;;;;;;;29.39;51.41;102105.06;7375156;19;20039;-76
2022/07/13 09:23:05;;;;;;;10.27;6.15;;;;;;;29.27;51.25;102087.56;7374871;19;20007;-76
2022/07/13 09:25:39;;;;;;;9.73;5.63;;;;;;;29.72;50.34;102089.16;7368029;19;20003;-74
2022/07/13 09:28:12;;;;;;;9.95;5.55;;;;;;;29.73;50.29;102098.13;7372615;19;20025;-76
2022/07/13 09:30:45;;;;;;;8.65;5.95;;;;;;;29.75;49.59;102105.22;7375086;19;20023;-74
2022/07/13 09:33:33;;;;;;;9.80;5.32;;;;;;;29.00;50.31;102096.06;7371664;19;20017;-74
2022/07/13 09:36:11;;;;;;;11.85;5.90;;;;;;;28.87;49.46;102095.72;7380895;19;20345;-72
2022/07/13 09:38:45;;;;;;;10.07;5.57;;;;;;;29.05;50.90;102094.03;7381521;19;20570;-80
2022/07/13 09:41:22;;;;;;;10.20;5.70;;;;;;;29.53;51.48;102090.94;7386700;19;20347;-77
2022/07/13 09:46:54;;;;;;;10.85;6.28;;;;;;;29.79;53.98;102097.84;7376357;19;20610;-76
2022/07/13 09:49:37;;;;;;;11.63;6.28;;;;;;;29.66;52.38;102104.78;7372928;19;20011;-74
2022/07/13 09:52:11;;;;;;;9.48;5.80;;;;;;;29.46;50.45;102103.88;7374468;19;20025;-74
2022/07/13 09:54:48;;;;;;;11.10;6.68;;;;;;;29.33;52.15;102108.03;7367014;19;20378;-74
2022/07/13 09:57:21;;;;;;;11.35;6.28;;;;;;;29.73;51.73;102108.94;7373149;19;20449;-74
2022/07/13 09:59:51;;;;;;;12.48;6.30;;;;;;;30.08;52.13;102102.78;7376339;19;20010;-74
2022/07/13 10:02:22;;;;;;;11.98;6.78;;;;;;;30.12;50.53;102103.50;7381211;19;20015;-74
2022/07/13 10:04:58;;;;;;;9.68;5.60;;;;;;;30.19;50.36;102099.50;7369089;19;20007;-75
2022/07/13 10:07:31;;;;;;;10.60;6.05;;;;;;;30.41;50.20;102107.44;7377286;19;20011;-74
2022/07/13 10:10:02;;;;;;;11.77;6.13;;;;;;;29.74;50.91;102108.88;7378620;19;20028;-74
2022/07/13 10:12:32;;;;;;;12.20;6.30;;;;;;;28.73;51.61;102117.88;7382005;19;20590;-79
2022/07/13 10:15:03;;;;;;;11.68;6.40;;;;;;;28.54;52.84;102112.38;7385486;19;20018;-79
2022/07/13 10:17:34;;;;;;;10.10;6.20;;;;;;;28.45;52.17;102114.56;7376139;19;20036;-74
2022/07/13 10:20:16;;;;;;;11.77;5.45;;;;;;;28.90;50.64;102131.56;7373219;19;20190;-75
2022/07/13 10:22:48;;;;;;;13.53;6.00;;;;;;;28.84;51.52;102112.94;7375409;19;20007;-74
2022/07/13 10:25:20;;;;;;;11.95;5.72;;;;;;;28.82;50.23;102128.31;7378012;19;20018;-77
2022/07/13 10:28:07;;;;;;;10.27;5.65;;;;;;;28.67;51.33;102133.47;7376878;19;20567;-73
2022/07/13 10:30:37;;;;;;;9.77;5.22;;;;;;;28.59;51.48;102137.34;7377928;19;20181;-73
2022/07/13 10:33:20;;;;;;;12.70;5.78;;;;;;;28.22;51.87;102137.97;7376409;19;20007;-73
2022/07/13 10:35:53;;;;;;;;;;;;;;;27.79;53.79;102148.66;7380076;19;20021;-78
2022/07/13 10:38:27;;;;;;;10.40;5.50;;;;;;;28.39;52.47;102141.81;7377858;19;19954;-80
2022/07/13 10:41:22;;;;;;;13.77;5.50;;;;;;;27.60;53.79;102143.97;7374417;19;20036;-74
2022/07/13 10:44:05;;;;;;;10.70;4.93;;;;;;;28.53;52.78;102159.19;7375992;19;20475;-75
2022/07/13 10:46:49;;;;;;;11.15;5.57;;;;;;;28.57;52.26;102150.03;7374780;19;20352;-79
2022/07/13 10:49:46;;;;;;;13.07;5.00;;;;;;;27.77;51.46;102166.72;7378086;19;20017;-74
2022/07/13 10:52:52;;;;;;;9.93;5.43;;;;;;;27.49;53.50;102172.19;7371766;19;20003;-75
2022/07/13 10:55:52;;;;;;;8.40;4.80;;;;;;;27.11;52.53;102176.25;7375892;19;20035;-76
2022/07/13 10:58:47;;;;;;;10.35;5.57;;;;;;;27.76;52.82;102164.94;7377260;19;20039;-74
2022/07/13 11:01:41;;;;;;;10.73;5.00;;;;;;;27.66;52.89;102165.28;7371237;19;20014;-74
2022/07/13 11:04:16;;;;;;;10.57;5.28;;;;;;;28.12;52.33;102152.72;7373857;19;20106;-76
2022/07/13 11:07:07;;;;;;;12.40;5.93;;;;;;;27.88;52.27;102159.97;7368910;19;20010;-75
2022/07/13 11:09:39;;;;;;;12.10;5.70;;;;;;;27.91;51.23;102153.59;7374987;19;20003;-75
2022/07/13 11:12:24;;;;;;;8.75;5.40;;;;;;;27.77;51.34;102155.94;7366885;19;20329;-75
2022/07/13 11:14:54;;;;;;;8.98;5.28;;;;;;;27.76;52.45;102154.16;7367753;19;20468;-74
2022/07/13 11:17:27;;;;;;;9.88;5.50;;;;;;;27.53;53.20;102165.75;7376795;19;20017;-74
2022/07/13 11:20:09;;;;;;;9.48;5.45;;;;;;;27.43;53.49;102176.00;7370371;19;20456;-74
2022/07/13 11:25:48;;;;;;;8.85;4.75;;;;;;;29.65;51.90;102174.19;7373576;19;20141;-75
2022/07/13 11:28:34;;;;;;;10.52;5.88;;;;;;;28.11;51.89;102177.94;7369320;19;20693;-75
2022/07/13 11:31:07;;;;;;;13.60;5.90;;;;;;;28.58;50.58;102188.69;7377046;19;20006;-75
2022/07/13 11:33:39;;;;;;;10.98;5.70;;;;;;;28.71;50.68;102189.06;7379021;19;20017;-75
2022/07/13 11:36:12;;;;;;;9.93;5.22;;;;;;;29.01;49.82;102190.53;7379602;19;20589;-75
2022/07/13 11:38:54;;;;;;;10.77;6.15;;;;;;;27.95;52.20;102171.41;7380757;19;20007;-75
2022/07/13 11:41:26;;;;;;;9.88;5.60;;;;;;;27.86;52.52;102179.84;7375594;19;20027;-74
2022/07/13 11:43:58;;;;;;;10.98;6.15;;;;;;;27.78;51.81;102190.03;7383723;19;20516;-74
2022/07/13 11:46:29;;;;;;;10.80;6.07;;;;;;;27.76;52.34;102186.50;7375459;19;20007;-75
2022/07/13 11:49:04;;;;;;;11.85;5.57;;;;;;;27.89;52.65;102185.13;7382406;19;20032;-82
2022/07/13 11:51:34;;;;;;;10.98;6.30;;;;;;;27.88;51.71;102186.94;7381896;19;20040;-74
2022/07/13 11:54:11;;;;;;;9.80;4.85;;;;;;;27.91;52.53;102181.44;7363373;19;20712;-73